Time;durP1;ratioP1;P1;durP2;ratioP2;P2;SDS_P1;SDS_P2;PMS_P1;PMS_P2;Temp;Humidity;BMP_temperature;BMP_pressure;BME280_temperature;BME280_humidity;BME280_pressure;Samples;Min_cycle;Max_cycle;Signal;HPM_P1;HPM_P2
2024/02/06 00:01:52;;;;;;;7.47;3.90;;;;;;;5.10;100.00;93123.00;5037564;28;20475;-79
2024/02/06 00:04:18;;;;;;;8.50;4.03;;;;;;;5.08;100.00;93125.03;5043566;28;20104;-78
2024/02/06 00:06:44;;;;;;;7.68;4.13;;;;;;;5.07;100.00;93123.47;5032820;28;20065;-78
2024/02/06 00:09:10;;;;;;;6.80;4.45;;;;;;;5.04;100.00;93127.31;5040386;28;20053;-79
2024/02/06 00:11:37;;;;;;;6.90;4.20;;;;;;;5.02;100.00;93121.56;5030933;28;20037;-79
2024/02/06 00:14:03;;;;;;;9.60;4.32;;;;;;;5.01;100.00;93117.41;5028556;28;20392;-77
2024/02/06 00:16:28;;;;;;;6.82;4.22;;;;;;;5.01;100.00;93114.81;5040421;28;20045;-79
2024/02/06 00:18:54;;;;;;;9.63;4.30;;;;;;;5.00;100.00;93105.47;5037154;28;20029;-80
2024/02/06 00:21:20;;;;;;;7.38;4.38;;;;;;;4.97;100.00;93109.31;5032843;28;20048;-78
2024/02/06 00:23:45;;;;;;;8.45;4.65;;;;;;;4.98;100.00;93115.31;5039529;28;20029;-79
2024/02/06 00:26:11;;;;;;;8.20;4.40;;;;;;;4.99;100.00;93115.03;5032147;28;20389;-77
2024/02/06 00:28:37;;;;;;;7.35;4.50;;;;;;;4.96;100.00;93123.31;5027272;28;20171;-80
2024/02/06 00:31:03;;;;;;;8.93;4.80;;;;;;;4.91;100.00;93117.25;5040125;28;20456;-79
2024/02/06 00:33:28;;;;;;;9.90;5.15;;;;;;;4.87;100.00;93108.38;5038409;28;20043;-79
2024/02/06 00:35:54;;;;;;;7.63;4.57;;;;;;;4.86;100.00;93107.56;5031303;28;20045;-78
2024/02/06 00:38:19;;;;;;;9.68;4.82;;;;;;;4.84;100.00;93114.81;5039697;28;20029;-79
2024/02/06 00:40:45;;;;;;;9.20;4.60;;;;;;;4.77;100.00;93114.97;5030863;28;20145;-78
2024/02/06 00:43:11;;;;;;;8.93;4.90;;;;;;;4.72;100.00;93119.28;5024849;28;20037;-79
2024/02/06 00:45:36;;;;;;;9.00;4.78;;;;;;;4.66;100.00;93118.41;5041338;28;20108;-79
2024/02/06 00:48:02;;;;;;;9.40;4.68;;;;;;;4.69;100.00;93111.97;5044625;28;20056;-80
2024/02/06 00:50:28;;;;;;;7.53;4.82;;;;;;;4.74;100.00;93112.84;5031079;28;20041;-79
2024/02/06 00:52:54;;;;;;;7.43;4.85;;;;;;;4.74;100.00;93114.66;5011596;28;20029;-79
2024/02/06 00:55:19;;;;;;;8.15;4.90;;;;;;;4.71;100.00;93115.91;5011802;28;20489;-78
2024/02/06 00:57:45;;;;;;;8.23;4.70;;;;;;;4.72;100.00;93122.66;5035894;28;20035;-77
2024/02/06 01:00:11;;;;;;;9.63;5.15;;;;;;;4.72;100.00;93122.66;5035240;28;20025;-78
2024/02/06 01:02:38;;;;;;;10.10;5.38;;;;;;;4.77;100.00;93130.53;5030804;28;20045;-79
2024/02/06 01:05:04;;;;;;;8.93;5.30;;;;;;;4.84;100.00;93120.00;5030599;28;20136;-78
2024/02/06 01:07:30;;;;;;;11.93;5.15;;;;;;;4.92;100.00;93118.81;5034243;28;20067;-78
2024/02/06 01:09:55;;;;;;;8.18;5.18;;;;;;;4.98;100.00;93118.69;5044136;28;20090;-79
2024/02/06 01:12:21;;;;;;;9.25;5.10;;;;;;;5.06;100.00;93117.47;5024464;28;20116;-79
2024/02/06 01:14:47;;;;;;;8.90;5.15;;;;;;;5.16;100.00;93125.44;5009435;28;20034;-79
2024/02/06 01:17:13;;;;;;;6.63;4.65;;;;;;;5.21;100.00;93124.72;5029471;28;20037;-79
2024/02/06 01:19:39;;;;;;;10.45;4.93;;;;;;;5.29;100.00;93128.72;5050003;28;20508;-77
2024/02/06 01:22:06;;;;;;;8.85;4.45;;;;;;;5.36;100.00;93129.38;5043172;28;20025;-78
2024/02/06 01:24:32;;;;;;;9.80;5.15;;;;;;;5.41;100.00;93125.03;5021819;28;20409;-79
2024/02/06 01:26:59;;;;;;;10.38;5.53;;;;;;;5.49;100.00;93130.81;5031059;28;20038;-79
2024/02/06 01:29:25;;;;;;;7.30;4.75;;;;;;;5.59;100.00;93126.56;5037529;28;20033;-78
2024/02/06 01:31:51;;;;;;;10.45;4.72;;;;;;;5.64;100.00;93118.84;5021948;28;20057;-79
2024/02/06 01:34:17;;;;;;;6.60;3.70;;;;;;;5.83;100.00;93121.16;5046759;28;20072;-77
2024/02/06 01:36:43;;;;;;;6.32;3.60;;;;;;;6.01;100.00;93126.09;5042394;28;20496;-79
2024/02/06 01:39:08;;;;;;;6.82;3.60;;;;;;;6.03;100.00;93131.84;5050721;28;20353;-79
2024/02/06 01:41:34;;;;;;;9.77;3.78;;;;;;;5.95;100.00;93123.69;5038614;28;20053;-78
2024/02/06 01:43:59;;;;;;;10.40;4.03;;;;;;;5.92;100.00;93114.53;5049766;28;20124;-79
2024/02/06 01:46:27;;;;;;;8.88;4.40;;;;;;;5.88;100.00;93110.03;5053930;28;20381;-79
2024/02/06 01:48:54;;;;;;;7.88;4.55;;;;;;;5.90;100.00;93103.59;5052417;28;20512;-79
2024/02/06 01:51:25;;;;;;;7.47;4.00;;;;;;;5.91;100.00;93102.53;5052202;28;20025;-78
2024/02/06 01:53:51;;;;;;;9.88;4.70;;;;;;;5.94;100.00;93112.47;5053703;28;20037;-77
2024/02/06 01:56:17;;;;;;;7.93;4.38;;;;;;;5.96;100.00;93107.03;5054120;28;20083;-80
2024/02/06 01:58:43;;;;;;;9.75;4.43;;;;;;;5.96;100.00;93092.22;5054141;28;20141;-79
2024/02/06 02:01:09;;;;;;;11.70;4.43;;;;;;;5.94;100.00;93086.50;5054636;28;20400;-77
2024/02/06 02:03:36;;;;;;;6.72;4.28;;;;;;;5.97;100.00;93075.63;5052216;28;20093;-80
2024/02/06 02:06:03;;;;;;;9.70;4.40;;;;;;;6.00;100.00;93082.94;5053740;28;20454;-80
2024/02/06 02:08:32;;;;;;;11.30;4.80;;;;;;;6.00;100.00;93080.34;5054987;28;20037;-78
2024/02/06 02:10:58;;;;;;;8.07;4.28;;;;;;;6.01;100.00;93081.09;5050265;28;20036;-80
2024/02/06 02:13:23;;;;;;;7.90;4.60;;;;;;;5.97;100.00;93072.25;5053988;28;20413;-80
2024/02/06 02:15:49;;;;;;;6.30;4.15;;;;;;;5.96;100.00;93058.44;5055212;28;20055;-78
2024/02/06 02:18:15;;;;;;;8.82;4.43;;;;;;;5.94;100.00;93065.69;5046342;28;20041;-79
2024/02/06 02:20:41;;;;;;;9.73;4.13;;;;;;;5.90;100.00;93059.41;5045763;28;20041;-79
2024/02/06 02:23:07;;;;;;;10.77;5.55;;;;;;;5.87;100.00;93054.69;5049354;28;20080;-78
2024/02/06 02:25:33;;;;;;;9.95;4.13;;;;;;;5.86;100.00;93053.13;5052886;28;20036;-79
2024/02/06 02:28:00;;;;;;;7.15;4.20;;;;;;;5.87;100.00;93054.69;5047390;28;20731;-79
2024/02/06 02:30:26;;;;;;;6.45;4.28;;;;;;;5.72;100.00;93026.72;5051322;28;20040;-80
2024/02/06 02:32:54;;;;;;;8.57;4.60;;;;;;;5.86;100.00;93050.53;5047394;28;20262;-79
2024/02/06 02:35:28;;;;;;;7.75;4.40;;;;;;;5.82;100.00;93050.22;5033606;28;20032;-78
2024/02/06 02:37:54;;;;;;;6.13;3.95;;;;;;;5.88;100.00;93045.88;5049480;28;20055;-78
2024/02/06 02:40:19;;;;;;;7.97;4.55;;;;;;;5.90;100.00;93049.00;5053136;28;20029;-79
2024/02/06 02:42:45;;;;;;;12.23;5.03;;;;;;;5.91;100.00;93049.78;5047287;28;20097;-80
2024/02/06 02:45:11;;;;;;;7.20;4.38;;;;;;;5.89;100.00;93046.66;5046596;28;20048;-78
2024/02/06 02:47:36;;;;;;;8.07;4.75;;;;;;;5.88;100.00;93035.47;5053714;28;20037;-79
2024/02/06 02:50:02;;;;;;;8.88;4.80;;;;;;;5.87;100.00;93031.28;5049146;28;20033;-78
2024/02/06 02:52:27;;;;;;;10.02;4.30;;;;;;;5.90;100.00;93037.81;5045080;28;20040;-78
2024/02/06 02:54:53;;;;;;;11.80;4.70;;;;;;;5.90;100.00;93023.03;5030271;28;20020;-79
2024/02/06 02:57:19;;;;;;;7.05;4.30;;;;;;;5.89;100.00;93025.88;5052697;28;20049;-80
2024/02/06 02:59:44;;;;;;;10.18;4.60;;;;;;;5.88;100.00;93029.47;5045364;28;20032;-80
2024/02/06 03:02:10;;;;;;;9.45;4.90;;;;;;;5.87;100.00;93023.50;5044569;28;20033;-78
2024/02/06 03:04:35;;;;;;;10.38;4.85;;;;;;;5.87;100.00;93027.91;5043784;28;20093;-79
2024/02/06 03:07:01;;;;;;;9.32;4.88;;;;;;;5.83;100.00;93025.00;5052069;28;20414;-79
2024/02/06 03:09:27;;;;;;;7.72;4.90;;;;;;;5.84;100.00;93022.19;5053159;28;20074;-78
2024/02/06 03:11:53;;;;;;;11.25;5.53;;;;;;;5.83;100.00;93018.03;5052663;28;20404;-79
2024/02/06 03:14:18;;;;;;;11.20;5.38;;;;;;;5.82;100.00;93020.84;5053239;28;20260;-79
2024/02/06 03:16:44;;;;;;;11.65;5.50;;;;;;;5.80;100.00;93018.50;5052456;28;20032;-80
2024/02/06 03:19:10;;;;;;;8.27;5.18;;;;;;;5.78;100.00;93017.16;5052939;28;20036;-79
2024/02/06 03:21:35;;;;;;;7.35;4.57;;;;;;;5.81;100.00;93019.28;5053702;28;20029;-79
2024/02/06 03:24:01;;;;;;;8.15;4.93;;;;;;;5.81;100.00;93017.47;5053579;28;20017;-79
2024/02/06 03:26:26;;;;;;;9.25;5.45;;;;;;;5.81;100.00;93019.28;5053755;28;20120;-79
2024/02/06 03:28:52;;;;;;;9.45;5.45;;;;;;;5.77;100.00;93016.38;5053704;28;20500;-79
2024/02/06 03:31:18;;;;;;;8.02;4.97;;;;;;;5.80;100.00;93022.91;5052980;28;20419;-78
2024/02/06 03:33:43;;;;;;;9.55;5.53;;;;;;;5.78;100.00;93019.75;5052789;28;20033;-79
2024/02/06 03:36:09;;;;;;;19.08;5.82;;;;;;;5.78;100.00;93009.38;5043866;28;20049;-77
2024/02/06 03:38:34;;;;;;;11.05;5.13;;;;;;;5.76;100.00;93014.81;5043633;28;20120;-80
2024/02/06 03:41:00;;;;;;;9.80;5.47;;;;;;;5.72;100.00;93007.75;5051940;28;20056;-78
2024/02/06 03:43:25;;;;;;;10.45;5.57;;;;;;;5.73;100.00;93014.53;5053468;28;20033;-80
2024/02/06 03:45:51;;;;;;;10.77;5.32;;;;;;;5.72;100.00;93015.53;5040031;28;20210;-79
2024/02/06 03:48:16;;;;;;;14.35;5.75;;;;;;;5.74;100.00;93010.88;5041630;28;20021;-79
2024/02/06 03:50:42;;;;;;;9.73;5.85;;;;;;;5.72;100.00;93015.53;5053013;28;20062;-79
2024/02/06 03:53:08;;;;;;;11.20;5.85;;;;;;;5.74;100.00;93008.28;5052115;28;20029;-76
2024/02/06 03:55:34;;;;;;;10.00;5.65;;;;;;;5.74;100.00;93018.69;5052742;28;20037;-79
2024/02/06 03:57:59;;;;;;;8.30;5.40;;;;;;;5.72;100.00;93008.53;5051686;28;20017;-79
2024/02/06 04:00:25;;;;;;;9.80;6.22;;;;;;;5.73;100.00;93006.72;5052713;28;20041;-80
2024/02/06 04:02:51;;;;;;;10.35;5.78;;;;;;;5.74;100.00;93006.50;5052413;28;20032;-79
2024/02/06 04:05:16;;;;;;;11.00;5.93;;;;;;;5.76;100.00;93009.59;5052602;28;20051;-79
2024/02/06 04:07:42;;;;;;;9.57;5.90;;;;;;;5.75;100.00;93007.28;5053228;28;20487;-78
2024/02/06 04:10:08;;;;;;;9.63;6.00;;;;;;;5.73;100.00;93004.13;5052986;28;20079;-78
2024/02/06 04:12:34;;;;;;;9.32;5.85;;;;;;;5.73;100.00;93011.91;5052015;28;20552;-79
2024/02/06 04:14:59;;;;;;;8.75;5.65;;;;;;;5.67;100.00;93000.69;5051540;28;20623;-79
2024/02/06 04:17:25;;;;;;;10.13;6.07;;;;;;;5.73;100.00;93004.13;5054228;28;20113;-78
2024/02/06 04:19:50;;;;;;;10.18;6.57;;;;;;;5.75;100.00;93008.06;5058602;28;20041;-78
2024/02/06 04:22:16;;;;;;;11.98;5.63;;;;;;;5.74;100.00;92997.88;5052007;28;20112;-78
2024/02/06 04:24:41;;;;;;;13.50;6.05;;;;;;;5.73;100.00;93002.31;5052459;28;20088;-79
2024/02/06 04:27:07;;;;;;;13.55;6.18;;;;;;;5.71;100.00;93004.38;5051409;28;20125;-79
2024/02/06 04:29:34;;;;;;;11.68;6.40;;;;;;;5.70;100.00;92995.00;5051701;28;20043;-78
2024/02/06 04:32:00;;;;;;;9.38;5.63;;;;;;;5.67;100.00;92992.88;5051845;28;20502;-79
2024/02/06 04:34:27;;;;;;;10.05;5.78;;;;;;;5.69;100.00;92987.44;5046226;28;20405;-78
2024/02/06 04:36:53;;;;;;;8.55;5.22;;;;;;;5.67;100.00;92992.09;5051567;28;20433;-77
2024/02/06 04:39:19;;;;;;;10.95;5.68;;;;;;;5.64;100.00;92993.38;5052126;28;20070;-78
2024/02/06 04:41:44;;;;;;;9.90;5.68;;;;;;;5.58;100.00;92986.56;5051354;28;20057;-79
2024/02/06 04:44:10;;;;;;;7.30;5.18;;;;;;;5.58;100.00;92986.56;5051430;28;20542;-79
2024/02/06 04:46:35;;;;;;;8.73;5.72;;;;;;;5.56;100.00;92992.00;5038596;28;20021;-79
2024/02/06 04:49:01;;;;;;;8.35;5.70;;;;;;;5.54;100.00;92986.25;5045348;28;20037;-79
2024/02/06 04:51:27;;;;;;;9.20;5.47;;;;;;;5.49;100.00;92986.19;5036389;28;20055;-78
2024/02/06 04:53:53;;;;;;;7.85;5.38;;;;;;;5.54;100.00;92994.06;5044545;28;20029;-77
2024/02/06 04:56:22;;;;;;;8.57;5.57;;;;;;;5.53;100.00;92984.69;5051476;28;20082;-79
2024/02/06 04:58:50;;;;;;;10.43;5.53;;;;;;;5.52;100.00;92983.13;5049870;28;20173;-79
2024/02/06 05:01:17;;;;;;;9.40;5.50;;;;;;;5.49;100.00;92990.59;5048075;28;20032;-79
2024/02/06 05:03:44;;;;;;;9.90;5.28;;;;;;;5.49;100.00;92985.41;5050153;28;20520;-79
2024/02/06 05:06:13;;;;;;;8.75;5.38;;;;;;;5.43;100.00;92979.38;5045532;28;20044;-80
2024/02/06 05:08:39;;;;;;;10.52;5.88;;;;;;;5.47;100.00;92979.66;5051688;28;20044;-79
2024/02/06 05:11:05;;;;;;;9.93;5.88;;;;;;;5.42;100.00;92970.78;5042730;28;20047;-80
2024/02/06 05:13:31;;;;;;;9.85;5.75;;;;;;;5.46;100.00;92970.31;5049393;28;20072;-79
2024/02/06 05:15:57;;;;;;;6.85;4.78;;;;;;;5.47;100.00;92970.09;5031379;28;20025;-78
2024/02/06 05:18:23;;;;;;;8.82;5.25;;;;;;;5.45;100.00;92966.94;5045750;28;20037;-78
2024/02/06 05:20:49;;;;;;;10.90;5.53;;;;;;;5.41;100.00;92966.63;5048999;28;20082;-79
2024/02/06 05:23:15;;;;;;;7.97;5.60;;;;;;;5.36;100.00;92960.63;5041924;28;20041;-78
2024/02/06 05:25:44;;;;;;;8.20;4.95;;;;;;;5.30;100.00;92964.16;5051060;28;20037;-79
2024/02/06 05:28:09;;;;;;;8.93;5.70;;;;;;;5.27;100.00;92965.44;5050703;28;20063;-79
2024/02/06 05:30:36;;;;;;;7.82;5.30;;;;;;;5.25;100.00;92958.91;5050682;28;20167;-78
2024/02/06 05:33:02;;;;;;;8.75;5.47;;;;;;;5.25;100.00;92961.53;5047858;28;20045;-78
2024/02/06 05:35:28;;;;;;;10.00;5.80;;;;;;;5.24;100.00;92965.13;5051019;28;20447;-78
2024/02/06 05:37:53;;;;;;;9.18;5.60;;;;;;;5.26;100.00;92960.47;5046686;28;20063;-82
2024/02/06 05:40:20;;;;;;;9.18;5.60;;;;;;;5.24;100.00;92958.13;5049642;28;20030;-78
2024/02/06 05:42:46;;;;;;;8.70;5.30;;;;;;;5.25;100.00;92964.88;5044268;28;20086;-77
2024/02/06 05:45:12;;;;;;;9.85;5.57;;;;;;;5.26;100.00;92960.47;5039737;28;20037;-78
2024/02/06 05:47:38;;;;;;;8.25;5.20;;;;;;;5.24;100.00;92957.34;5037783;28;20081;-77
2024/02/06 05:50:04;;;;;;;10.75;5.85;;;;;;;5.22;100.00;92966.16;5038011;28;20108;-78
2024/02/06 05:52:29;;;;;;;7.97;5.43;;;;;;;5.21;100.00;92961.97;5037069;28;20123;-78
2024/02/06 05:54:55;;;;;;;8.55;5.50;;;;;;;5.18;100.00;92970.25;5040828;28;20033;-76
2024/02/06 05:57:20;;;;;;;15.85;6.30;;;;;;;5.14;100.00;92969.16;5040491;28;20124;-79
2024/02/06 05:59:46;;;;;;;8.85;5.85;;;;;;;5.15;100.00;92968.13;5035356;28;20404;-79
2024/02/06 06:02:11;;;;;;;9.13;5.65;;;;;;;5.15;100.00;92964.75;5037367;28;20037;-80
2024/02/06 06:04:37;;;;;;;10.18;5.90;;;;;;;5.17;100.00;92958.28;5039461;28;20507;-79
2024/02/06 06:07:03;;;;;;;11.30;5.93;;;;;;;5.18;100.00;92964.28;5040210;28;20033;-78
2024/02/06 06:09:29;;;;;;;9.95;5.30;;;;;;;5.18;100.00;92972.84;5036499;28;20152;-79
2024/02/06 06:11:54;;;;;;;9.95;5.50;;;;;;;5.16;100.00;92967.13;5048780;28;20037;-79
2024/02/06 06:14:20;;;;;;;11.93;5.35;;;;;;;5.17;100.00;92973.09;5049285;28;20029;-79
2024/02/06 06:16:45;;;;;;;9.45;6.22;;;;;;;5.18;100.00;92970.25;5048022;28;20035;-79
2024/02/06 06:19:11;;;;;;;10.85;5.80;;;;;;;5.20;100.00;92964.81;5037977;28;20409;-78
2024/02/06 06:21:38;;;;;;;9.60;6.22;;;;;;;5.16;100.00;92967.13;5049473;28;20466;-78
2024/02/06 06:24:04;;;;;;;9.20;6.00;;;;;;;5.16;100.00;92966.34;5047351;28;20519;-77
2024/02/06 06:26:30;;;;;;;9.75;6.07;;;;;;;5.17;100.00;92973.09;5049638;28;20041;-78
2024/02/06 06:28:55;;;;;;;9.60;6.22;;;;;;;5.18;100.00;92978.03;5043291;28;20031;-78
2024/02/06 06:31:21;;;;;;;10.73;5.90;;;;;;;5.15;100.00;92975.91;5049276;28;20245;-78
2024/02/06 06:33:46;;;;;;;13.70;6.13;;;;;;;5.12;100.00;92971.22;5052181;28;20025;-77
2024/02/06 06:36:12;;;;;;;10.63;6.13;;;;;;;5.11;100.00;92979.22;5053070;28;20068;-79
2024/02/06 06:38:38;;;;;;;11.40;6.25;;;;;;;5.07;100.00;92978.94;5043539;28;20037;-78
2024/02/06 06:41:04;;;;;;;10.30;5.93;;;;;;;5.05;100.00;92978.38;5050540;28;20148;-78
2024/02/06 06:43:29;;;;;;;10.10;5.53;;;;;;;5.00;100.00;92970.56;5040920;28;20318;-80
2024/02/06 06:45:55;;;;;;;12.38;6.60;;;;;;;4.98;100.00;92965.59;5051786;28;20032;-79
2024/02/06 06:48:21;;;;;;;9.40;6.07;;;;;;;5.00;100.00;92973.13;5047432;28;20024;-79
2024/02/06 06:50:46;;;;;;;8.82;5.78;;;;;;;4.98;100.00;92973.38;5041744;28;20108;-79
2024/02/06 06:53:12;;;;;;;10.75;6.30;;;;;;;4.95;100.00;92980.84;5046691;28;20021;-79
2024/02/06 06:55:37;;;;;;;9.55;6.22;;;;;;;4.95;100.00;92980.84;5046630;28;20045;-80
2024/02/06 06:58:03;;;;;;;10.65;6.32;;;;;;;4.95;100.00;92976.47;5050937;28;20045;-79
2024/02/06 07:00:29;;;;;;;8.23;5.97;;;;;;;4.96;100.00;92977.22;5045323;28;20053;-78
2024/02/06 07:02:56;;;;;;;9.32;6.05;;;;;;;4.95;100.00;92966.06;5051077;28;20032;-78
2024/02/06 07:05:22;;;;;;;9.63;5.60;;;;;;;4.98;100.00;92980.38;5043375;28;20424;-80
2024/02/06 07:07:48;;;;;;;9.70;6.03;;;;;;;5.02;100.00;92978.84;5047707;28;20029;-76
2024/02/06 07:10:14;;;;;;;11.73;6.38;;;;;;;5.04;100.00;92976.81;5050097;28;20068;-79
2024/02/06 07:12:40;;;;;;;11.27;6.40;;;;;;;5.06;100.00;92982.53;5043979;28;20388;-78
2024/02/06 07:15:06;;;;;;;9.40;6.00;;;;;;;5.05;100.00;92975.78;5038792;28;20029;-78
2024/02/06 07:17:31;;;;;;;10.95;5.78;;;;;;;5.11;100.00;92974.84;5040169;28;20072;-80
2024/02/06 07:19:58;;;;;;;10.13;5.70;;;;;;;5.13;100.00;92972.00;5036702;28;20103;-79
2024/02/06 07:22:23;;;;;;;12.32;6.03;;;;;;;5.20;100.00;92975.19;5036419;28;20017;-80
2024/02/06 07:24:51;;;;;;;9.73;6.10;;;;;;;5.25;100.00;92966.72;5047344;28;20051;-77
2024/02/06 07:27:16;;;;;;;11.82;6.10;;;;;;;5.28;100.00;92964.41;5041114;28;20480;-80
2024/02/06 07:29:42;;;;;;;13.88;6.50;;;;;;;5.33;100.00;92959.25;5049712;28;20036;-82
2024/02/06 07:32:08;;;;;;;9.93;5.82;;;;;;;5.39;100.00;92967.91;5049559;28;20055;-81
2024/02/06 07:34:33;;;;;;;9.45;6.05;;;;;;;5.47;100.00;92972.69;5039908;28;20379;-80
2024/02/06 07:36:59;;;;;;;13.23;6.47;;;;;;;5.53;100.00;92968.31;5037791;28;20037;-77
2024/02/06 07:39:25;;;;;;;17.05;6.20;;;;;;;5.59;100.00;92973.34;5038771;28;20040;-79
2024/02/06 07:41:51;;;;;;;11.50;6.25;;;;;;;5.67;100.00;92979.13;5049208;28;20437;-81
2024/02/06 07:44:17;;;;;;;14.68;6.15;;;;;;;5.73;100.00;92973.72;5046797;28;20032;-80
2024/02/06 07:46:43;;;;;;;10.13;5.82;;;;;;;5.80;100.00;92979.53;5043154;28;20033;-78
2024/02/06 07:49:09;;;;;;;14.05;5.80;;;;;;;5.90;100.00;92976.25;5050348;28;20037;-80
2024/02/06 07:51:34;;;;;;;9.50;5.50;;;;;;;5.97;100.00;92971.69;5050903;28;20048;-79
2024/02/06 07:54:00;;;;;;;13.38;6.07;;;;;;;6.07;100.00;92970.97;5049540;28;20045;-81
2024/02/06 07:56:30;;;;;;;13.63;6.32;;;;;;;6.13;100.00;92977.81;5050633;28;20495;-80
2024/02/06 07:58:58;;;;;;;10.10;6.05;;;;;;;6.13;100.00;92975.19;5016967;28;20504;-78
2024/02/06 08:01:24;;;;;;;11.02;5.95;;;;;;;6.22;100.00;92972.94;5042592;28;20512;-79
2024/02/06 08:03:50;;;;;;;15.02;6.53;;;;;;;6.28;100.00;92971.94;5050040;28;20037;-79
2024/02/06 08:06:19;;;;;;;8.68;5.13;;;;;;;6.45;100.00;92977.03;5049581;28;20037;-80
2024/02/06 08:08:45;;;;;;;11.38;5.75;;;;;;;6.30;100.00;92977.66;5042443;28;20043;-81
2024/02/06 08:11:10;;;;;;;8.27;5.72;;;;;;;6.17;100.00;92978.88;5049444;28;20757;-78
2024/02/06 08:13:40;;;;;;;9.93;5.15;;;;;;;6.24;100.00;92974.25;5048765;28;20404;-80
2024/02/06 08:16:06;;;;;;;7.72;5.00;;;;;;;6.26;100.00;92981.81;5047975;28;20056;-81
2024/02/06 08:18:32;;;;;;;11.68;5.57;;;;;;;6.18;100.00;92987.47;5045427;28;20511;-81
2024/02/06 08:20:58;;;;;;;9.32;5.20;;;;;;;6.22;100.00;92991.16;5044015;28;20037;-80
2024/02/06 08:23:23;;;;;;;12.68;5.45;;;;;;;6.17;100.00;92988.47;5048498;28;20515;-80
2024/02/06 08:25:49;;;;;;;9.57;5.93;;;;;;;6.09;100.00;92999.34;5042563;28;20041;-79
2024/02/06 08:28:14;;;;;;;9.50;5.65;;;;;;;6.09;100.00;92988.94;5046523;28;20029;-81
2024/02/06 08:30:47;;;;;;;10.80;6.20;;;;;;;6.18;100.00;92977.06;5050025;28;20075;-79
2024/02/06 08:33:14;;;;;;;11.40;6.43;;;;;;;6.20;100.00;92985.41;5049377;28;20084;-81
2024/02/06 08:35:39;;;;;;;15.10;7.20;;;;;;;6.21;100.00;92981.75;5048701;28;20056;-79
2024/02/06 08:38:05;;;;;;;10.40;6.47;;;;;;;6.23;100.00;92990.09;5049972;28;20041;-78
2024/02/06 08:40:31;;;;;;;11.18;6.97;;;;;;;6.35;100.00;92977.75;5047701;28;20040;-79
2024/02/06 08:42:57;;;;;;;8.50;6.00;;;;;;;6.38;100.00;92972.03;5039031;28;20029;-78
2024/02/06 08:45:22;;;;;;;9.18;6.38;;;;;;;6.47;100.00;92980.94;5044136;28;20033;-80
2024/02/06 08:47:48;;;;;;;10.90;6.75;;;;;;;6.52;100.00;92974.22;5030928;28;20390;-77
2024/02/06 08:50:14;;;;;;;10.80;5.38;;;;;;;6.79;100.00;92977.53;5046857;28;20025;-80
2024/02/06 08:52:43;;;;;;;8.25;5.47;;;;;;;6.76;100.00;92978.03;5048091;28;20056;-81
2024/02/06 08:55:09;;;;;;;8.00;4.45;;;;;;;6.95;100.00;92982.84;5048409;28;20053;-80
2024/02/06 08:57:36;;;;;;;9.82;5.43;;;;;;;6.86;100.00;92974.72;5049682;28;20117;-79
2024/02/06 09:00:07;;;;;;;10.48;5.32;;;;;;;6.61;100.00;92977.94;5049129;28;20214;-80
2024/02/06 09:02:33;;;;;;;10.27;4.68;;;;;;;6.62;100.00;92982.09;5041983;28;20048;-81
2024/02/06 09:04:59;;;;;;;7.88;4.78;;;;;;;6.71;100.00;92978.00;5042719;28;20041;-80
2024/02/06 09:07:25;;;;;;;7.15;3.80;;;;;;;6.71;100.00;92970.22;5041318;28;20373;-79
2024/02/06 09:09:53;;;;;;;10.02;5.65;;;;;;;6.71;100.00;92970.22;5031432;28;20028;-80
2024/02/06 09:12:19;;;;;;;9.07;5.13;;;;;;;6.70;100.00;92978.25;5047099;28;20055;-80
2024/02/06 09:14:44;;;;;;;10.10;5.97;;;;;;;6.79;100.00;92969.72;5041456;28;20036;-80
2024/02/06 09:17:11;;;;;;;9.57;5.80;;;;;;;6.67;100.00;92977.72;5049176;28;20048;-80
2024/02/06 09:19:37;;;;;;;10.50;5.80;;;;;;;6.75;100.00;92971.25;5047199;28;20048;-81
2024/02/06 09:22:03;;;;;;;8.77;6.35;;;;;;;6.75;100.00;92966.06;5048849;28;20116;-80
2024/02/06 09:24:28;;;;;;;10.55;5.43;;;;;;;6.78;100.00;92962.19;5049583;28;20025;-80
2024/02/06 09:26:55;;;;;;;9.68;5.47;;;;;;;6.74;100.00;92961.91;5046735;28;20047;-80
2024/02/06 09:29:22;;;;;;;9.90;5.40;;;;;;;6.71;100.00;92967.59;5037380;28;20037;-80
2024/02/06 09:31:48;;;;;;;9.25;5.53;;;;;;;6.62;100.00;92972.47;5049529;28;20120;-80
2024/02/06 09:34:13;;;;;;;8.23;4.65;;;;;;;6.86;100.00;92964.31;5048086;28;20033;-77
2024/02/06 09:36:39;;;;;;;10.60;6.25;;;;;;;6.92;100.00;92957.31;5048586;28;20064;-79
2024/02/06 09:39:06;;;;;;;10.77;5.60;;;;;;;6.76;100.00;92965.03;5049017;28;20112;-79
2024/02/06 09:41:36;;;;;;;11.00;5.53;;;;;;;6.90;100.00;92962.00;5047669;28;20432;-80
2024/02/06 09:44:03;;;;;;;7.55;3.97;;;;;;;7.04;100.00;92957.91;5048075;28;20113;-78
2024/02/06 09:46:29;;;;;;;9.70;5.60;;;;;;;7.10;100.00;92959.50;5040637;28;20611;-78
2024/02/06 09:48:56;;;;;;;7.97;5.50;;;;;;;7.11;100.00;92955.84;5046289;28;20553;-80
2024/02/06 09:51:25;;;;;;;10.70;6.00;;;;;;;7.28;100.00;92961.66;5047874;28;20032;-80
2024/02/06 09:53:58;;;;;;;10.50;5.88;;;;;;;7.47;100.00;92963.81;5034964;28;20065;-79
2024/02/06 09:56:26;;;;;;;10.45;5.75;;;;;;;7.52;100.00;92961.25;5045904;28;20409;-81
2024/02/06 09:58:52;;;;;;;10.27;5.65;;;;;;;7.56;100.00;92970.09;5047534;28;20433;-80
2024/02/06 10:01:19;;;;;;;8.52;5.15;;;;;;;7.81;100.00;92966.78;5049419;28;20040;-78
2024/02/06 10:03:50;;;;;;;11.15;6.03;;;;;;;7.78;100.00;92971.75;5048894;28;20029;-77
2024/02/06 10:06:22;;;;;;;7.97;6.03;;;;;;;7.74;100.00;92970.69;5050681;28;20092;-79
2024/02/06 10:08:49;;;;;;;;;;;;;;;8.01;100.00;92973.09;5053441;28;20029;-81
2024/02/06 10:11:20;;;;;;;11.55;6.03;;;;;;;8.03;100.00;92969.19;5043042;28;19992;-78
2024/02/06 10:13:46;;;;;;;11.95;6.00;;;;;;;8.14;100.00;92976.00;5045272;28;20068;-80
2024/02/06 10:16:12;;;;;;;6.85;5.18;;;;;;;8.28;100.00;92981.50;5052843;28;20570;-81
2024/02/06 10:18:52;;;;;;;13.05;6.10;;;;;;;8.33;100.00;92972.88;5034287;28;20049;-79
2024/02/06 10:21:18;;;;;;;10.73;5.32;;;;;;;8.32;100.00;92971.34;5050788;28;20033;-78
2024/02/06 10:23:43;;;;;;;10.25;5.97;;;;;;;8.64;100.00;92981.53;5043884;28;20025;-79
2024/02/06 10:26:09;;;;;;;11.98;6.45;;;;;;;9.00;100.00;92975.50;5049512;28;20126;-80
2024/02/06 10:28:36;;;;;;;9.00;5.65;;;;;;;9.07;100.00;92973.41;5046657;28;20064;-80
2024/02/06 10:31:12;;;;;;;9.88;5.93;;;;;;;9.10;100.00;92970.28;5055910;28;20064;-81
2024/02/06 10:33:38;;;;;;;6.20;3.85;;;;;;;8.89;100.00;92972.13;5045059;28;20615;-79
2024/02/06 10:36:05;;;;;;;10.02;5.90;;;;;;;8.56;100.00;92976.88;5048497;28;20138;-78
2024/02/06 10:38:31;;;;;;;4.25;3.05;;;;;;;8.63;100.00;92976.59;5052352;28;20040;-81
2024/02/06 10:40:58;;;;;;;9.57;5.80;;;;;;;8.46;100.00;92976.84;5057542;28;20521;-78
2024/02/06 10:43:31;;;;;;;7.90;3.80;;;;;;;8.37;100.00;92981.75;5034530;28;20098;-81
2024/02/06 10:46:00;;;;;;;7.90;5.38;;;;;;;8.23;100.00;92965.84;5051824;28;20033;-78
2024/02/06 10:48:26;;;;;;;8.07;4.40;;;;;;;8.38;100.00;92975.53;5045662;28;20048;-81
2024/02/06 10:50:59;;;;;;;7.60;5.53;;;;;;;8.34;100.00;92969.25;5050477;28;20072;-79
2024/02/06 10:53:26;;;;;;;5.75;3.63;;;;;;;8.48;100.00;92962.50;5023865;28;20038;-80
2024/02/06 10:56:00;;;;;;;9.95;5.70;;;;;;;8.27;100.00;92960.91;5025442;28;20037;-81
2024/02/06 10:58:37;;;;;;;8.75;4.97;;;;;;;8.33;100.00;92958.03;5046103;28;20025;-81
2024/02/06 11:01:06;;;;;;;4.63;2.95;;;;;;;8.55;100.00;92965.63;5046867;28;20029;-79
2024/02/06 11:03:44;;;;;;;10.80;6.03;;;;;;;8.22;100.00;92951.25;5042744;28;20838;-81
2024/02/06 11:06:21;;;;;;;6.88;4.65;;;;;;;8.57;100.00;92957.53;5047527;28;20105;-79
2024/02/06 11:08:48;;;;;;;9.85;5.35;;;;;;;8.74;100.00;92944.22;5050236;28;20041;-80
2024/02/06 11:11:16;;;;;;;10.52;4.75;;;;;;;8.57;100.00;92954.16;5043366;28;20067;-80
2024/02/06 11:13:46;;;;;;;8.32;5.22;;;;;;;8.61;100.00;92952.59;5045857;28;20806;-79
2024/02/06 11:16:19;;;;;;;7.47;2.83;;;;;;;8.44;100.00;92947.63;5049492;28;20036;-79
2024/02/06 11:19:20;;;;;;;7.97;5.25;;;;;;;8.42;100.00;92934.06;5036428;28;20040;-79
2024/02/06 11:21:54;;;;;;;5.57;3.60;;;;;;;8.42;100.00;92937.47;5042352;28;20068;-78
2024/02/06 11:24:22;;;;;;;9.48;5.30;;;;;;;8.55;100.00;92933.53;5040867;28;20497;-79
2024/02/06 11:26:48;;;;;;;8.13;5.30;;;;;;;8.43;100.00;92930.41;5050315;28;20037;-78
2024/02/06 11:29:15;;;;;;;7.95;5.60;;;;;;;8.43;100.00;92928.59;5041727;28;20094;-79